Time;durP1;ratioP1;P1;durP2;ratioP2;P2;SDS_P1;SDS_P2;PMS_P1;PMS_P2;Temp;Humidity;BMP_temperature;BMP_pressure;BME280_temperature;BME280_humidity;BME280_pressure;Samples;Min_cycle;Max_cycle;Signal;HPM_P1;HPM_P2
2021/09/30 00:00:09;;;;;;;22.30;10.43;;;;;;;9.13;65.73;101322.81;5062477;28;20045;-63
2021/09/30 00:02:35;;;;;;;17.48;9.88;;;;;;;9.07;66.12;101302.06;5029618;28;20069;-62
2021/09/30 00:05:01;;;;;;;14.63;8.70;;;;;;;9.16;65.50;101320.25;5030993;28;20126;-64
2021/09/30 00:07:38;;;;;;;11.68;6.68;;;;;;;9.15;65.04;101308.13;5030836;28;20038;-62
2021/09/30 00:10:05;;;;;;;9.43;4.70;;;;;;;9.13;65.09;101312.44;5029933;28;20385;-64
2021/09/30 00:12:35;;;;;;;14.98;7.95;;;;;;;9.11;64.60;101311.56;5023181;28;20038;-65
2021/09/30 00:15:10;;;;;;;11.63;6.32;;;;;;;8.95;64.67;101315.09;5011089;28;20531;-65
2021/09/30 00:50:29;;;;;;;8.18;4.32;;;;;;;9.20;64.61;101329.72;5028733;28;20076;-63
2021/09/30 01:46:27;;;;;;;15.90;7.55;;;;;;;8.96;65.91;101309.00;5011516;28;20050;-63
2021/09/30 02:24:22;;;;;;;9.95;5.40;;;;;;;9.04;66.08;101347.06;5011965;28;20429;-65
2021/09/30 02:59:44;;;;;;;13.43;6.78;;;;;;;9.00;68.06;101350.53;5016527;28;20504;-63
2021/09/30 03:02:10;;;;;;;14.98;6.82;;;;;;;9.02;67.90;101350.50;5029516;28;20501;-63
2021/09/30 03:04:38;;;;;;;10.82;5.30;;;;;;;9.00;67.48;101353.13;5046781;28;20045;-64
2021/09/30 03:07:06;;;;;;;8.60;3.33;;;;;;;9.01;66.15;101354.84;5030870;28;20132;-65
2021/09/30 03:09:40;;;;;;;3.05;1.88;;;;;;;9.01;65.12;101354.84;5013578;28;20095;-65
2021/09/30 03:12:08;;;;;;;4.55;1.70;;;;;;;8.99;64.23;101356.59;5029495;28;20062;-64
2021/09/30 03:14:41;;;;;;;3.43;1.43;;;;;;;8.98;63.89;101349.66;4994630;28;20416;-62
2021/09/30 03:17:08;;;;;;;3.05;1.63;;;;;;;9.02;63.08;101351.38;4995575;28;20100;-63
2021/09/30 03:19:51;;;;;;;3.70;1.65;;;;;;;9.06;63.89;101350.50;5011317;28;20046;-63
2021/09/30 03:22:17;;;;;;;3.65;1.80;;;;;;;9.07;63.66;101348.78;5047375;28;20095;-63
2021/09/30 03:24:49;;;;;;;4.55;2.20;;;;;;;9.07;63.67;101343.59;5014176;28;20128;-63
2021/09/30 03:27:15;;;;;;;5.60;1.80;;;;;;;8.92;63.88;101323.72;5030690;28;20420;-63
2021/09/30 03:29:41;;;;;;;5.57;2.38;;;;;;;9.07;64.21;101344.44;5036701;28;20877;-62
2021/09/30 03:32:07;;;;;;;6.78;2.90;;;;;;;9.01;64.04;101341.00;5030509;28;20091;-63
2021/09/30 03:35:02;;;;;;;4.78;2.83;;;;;;;9.03;64.16;101344.47;5022171;28;20048;-63
2021/09/30 03:37:28;;;;;;;8.40;3.03;;;;;;;9.05;64.66;101347.94;5013712;28;20091;-63
2021/09/30 03:39:55;;;;;;;8.00;3.80;;;;;;;9.04;64.83;101347.06;5030596;28;20140;-65
2021/09/30 03:42:21;;;;;;;7.90;3.92;;;;;;;9.05;64.86;101353.13;5025320;28;20037;-63
2021/09/30 03:44:54;;;;;;;9.25;3.05;;;;;;;9.07;64.87;101353.97;5014967;28;20048;-63
2021/09/30 03:47:20;;;;;;;14.95;7.05;;;;;;;9.06;64.65;101349.63;5029760;28;20057;-62
2021/09/30 03:49:52;;;;;;;10.15;4.00;;;;;;;9.08;65.31;101353.97;5029571;28;20447;-65
2021/09/30 03:59:46;;;;;;;5.83;3.20;;;;;;;9.10;64.73;101347.06;5030123;28;20041;-65
2021/09/30 04:02:24;;;;;;;8.40;3.40;;;;;;;9.13;64.59;101356.56;5028783;28;20048;-63
2021/09/30 04:04:50;;;;;;;10.13;3.28;;;;;;;9.06;64.81;101340.13;5029354;28;20045;-64
2021/09/30 04:07:18;;;;;;;26.65;4.18;;;;;;;9.11;64.55;101351.34;5013332;28;20053;-62
2021/09/30 04:09:45;;;;;;;54.22;5.95;;;;;;;9.12;64.02;101358.28;5029568;28;20063;-63
2021/09/30 04:12:12;;;;;;;24.05;3.85;;;;;;;9.08;64.32;101350.50;5031566;28;20049;-64
2021/09/30 04:14:39;;;;;;;23.65;4.43;;;;;;;9.07;64.78;101357.41;5026371;28;20072;-64
2021/09/30 04:17:06;;;;;;;10.70;4.35;;;;;;;9.04;65.07;101349.66;5032335;28;20045;-63
2021/09/30 04:19:33;;;;;;;8.50;3.80;;;;;;;9.07;64.87;101357.41;5017268;28;20037;-63
2021/09/30 04:21:59;;;;;;;10.63;5.05;;;;;;;9.00;65.17;101347.94;5004615;28;20049;-64
2021/09/30 04:24:26;;;;;;;16.90;6.47;;;;;;;9.02;65.72;101359.16;5028142;28;20054;-63
2021/09/30 04:26:55;;;;;;;12.98;6.57;;;;;;;9.08;65.96;101353.97;5033728;28;20132;-62
2021/09/30 04:29:22;;;;;;;16.52;6.80;;;;;;;9.08;66.90;101360.88;5026352;28;20090;-63
2021/09/30 04:31:48;;;;;;;20.45;6.97;;;;;;;9.06;67.72;101366.06;5029183;28;20116;-63
2021/09/30 04:34:14;;;;;;;13.98;6.20;;;;;;;9.07;67.96;101366.94;5027540;28;20061;-62
2021/09/30 04:36:40;;;;;;;14.43;6.03;;;;;;;9.04;68.22;101373.00;5027888;28;20131;-62
2021/09/30 04:39:06;;;;;;;11.43;5.78;;;;;;;9.01;68.62;101362.63;5012297;28;20124;-62
2021/09/30 04:41:35;;;;;;;12.52;5.03;;;;;;;8.98;68.67;101366.94;5028662;28;20041;-63
2021/09/30 04:44:03;;;;;;;15.80;5.65;;;;;;;9.02;68.91;101374.72;5012253;28;20438;-63
2021/09/30 04:46:29;;;;;;;13.25;5.88;;;;;;;9.00;69.03;101371.28;5023174;28;20057;-61
2021/09/30 04:49:18;;;;;;;12.93;5.90;;;;;;;8.98;68.93;101369.56;5027097;28;20072;-61
2021/09/30 04:51:44;;;;;;;13.20;6.20;;;;;;;8.93;69.37;101373.00;5034973;28;20509;-62
2021/09/30 04:54:09;;;;;;;13.25;6.32;;;;;;;8.91;69.68;101366.94;5026465;28;20058;-64
2021/09/30 04:56:36;;;;;;;11.90;5.95;;;;;;;8.93;69.62;101369.56;5027311;28;20044;-62
2021/09/30 04:59:16;;;;;;;10.23;5.00;;;;;;;8.83;69.73;101355.72;5025740;28;20183;-66
2021/09/30 05:01:48;;;;;;;9.30;4.45;;;;;;;8.87;70.10;101370.41;5012790;28;20132;-66
2021/09/30 05:04:18;;;;;;;;;;;;;;;8.83;69.85;101373.88;5032418;28;20072;-64
2021/09/30 05:06:43;;;;;;;14.98;4.05;;;;;;;8.78;69.20;101373.03;5043947;28;19948;-64
2021/09/30 05:09:10;;;;;;;7.53;3.92;;;;;;;8.66;69.69;101367.81;5028024;28;20071;-56
2021/09/30 05:11:40;;;;;;;6.50;3.75;;;;;;;8.73;70.12;101382.53;5043663;28;20068;-57
2021/09/30 05:14:05;;;;;;;;;;;;;;;8.70;70.20;101389.44;5027323;28;20536;-56
2021/09/30 05:16:32;;;;;;;10.45;5.22;;;;;;;8.69;70.24;101378.19;5025114;28;20312;-62
2021/09/30 05:18:58;;;;;;;13.32;5.78;;;;;;;8.67;70.28;101382.53;5014606;28;20034;-70
2021/09/30 05:21:28;;;;;;;8.63;4.50;;;;;;;8.66;70.11;101385.97;5035843;28;20048;-59
2021/09/30 05:23:54;;;;;;;9.32;4.07;;;;;;;8.63;70.71;101385.13;5041277;28;20156;-60
2021/09/30 05:26:20;;;;;;;7.53;4.25;;;;;;;8.54;70.82;101372.13;5024740;28;20045;-60
2021/09/30 05:28:46;;;;;;;10.43;3.83;;;;;;;8.59;70.77;101380.78;5025038;28;20517;-59
2021/09/30 05:31:12;;;;;;;8.60;3.53;;;;;;;8.65;70.45;101386.84;5041329;28;20056;-60
2021/09/30 05:33:57;;;;;;;7.72;4.07;;;;;;;8.70;70.10;101386.84;5008618;28;20038;-61
2021/09/30 05:36:24;;;;;;;12.23;4.30;;;;;;;8.72;70.19;101383.41;5019571;28;20053;-61
2021/09/30 05:38:50;;;;;;;16.20;4.18;;;;;;;8.77;70.05;101383.38;5044790;28;20037;-60
2021/09/30 05:41:16;;;;;;;13.77;5.70;;;;;;;8.79;69.02;101381.66;5035761;28;20046;-61
2021/09/30 05:43:48;;;;;;;12.48;4.00;;;;;;;8.83;68.95;101386.00;5041999;28;20041;-60
2021/09/30 05:46:16;;;;;;;25.50;11.25;;;;;;;8.88;68.17;101394.63;5027696;28;20081;-61
2021/09/30 05:48:42;;;;;;;14.85;3.90;;;;;;;8.87;67.81;101385.13;5028159;28;20064;-60
2021/09/30 05:51:07;;;;;;;8.85;3.65;;;;;;;8.92;67.11;101385.97;5028046;28;20540;-60
2021/09/30 05:53:53;;;;;;;9.18;5.55;;;;;;;8.98;66.99;101387.72;5021194;28;20050;-61
2021/09/30 05:56:30;;;;;;;13.23;5.78;;;;;;;9.05;67.04;101389.44;5052431;28;20548;-61
2021/09/30 05:58:56;;;;;;;19.70;9.70;;;;;;;8.99;67.06;101366.97;5030126;28;20053;-59
2021/09/30 06:12:33;;;;;;;10.07;3.95;;;;;;;9.16;64.88;101359.16;5028424;28;20128;-61
2021/09/30 06:15:00;;;;;;;11.48;3.90;;;;;;;9.26;64.36;101381.63;5031511;28;20041;-61
2021/09/30 06:17:27;;;;;;;8.15;3.65;;;;;;;9.26;64.35;101381.63;5048194;28;20045;-61
2021/09/30 06:19:54;;;;;;;9.82;4.20;;;;;;;9.30;64.48;101388.53;5045554;28;20124;-54
2021/09/30 06:22:20;;;;;;;11.13;5.07;;;;;;;9.35;64.12;101384.19;5015212;28;20216;-57
2021/09/30 06:24:46;;;;;;;13.77;5.40;;;;;;;9.35;64.59;101371.22;5030705;28;20097;-53
2021/09/30 06:27:12;;;;;;;9.40;4.05;;;;;;;9.53;64.34;101391.94;5047617;28;20521;-58
2021/09/30 06:29:38;;;;;;;10.68;4.45;;;;;;;9.63;64.22;101390.19;5011382;28;20052;-57
2021/09/30 06:32:05;;;;;;;6.13;3.60;;;;;;;9.75;63.97;101387.53;5029610;28;20128;-58
2021/09/30 06:35:10;;;;;;;11.02;3.65;;;;;;;9.90;63.35;101394.41;4998365;28;20072;-57
2021/09/30 06:37:43;;;;;;;10.35;3.80;;;;;;;10.04;62.89;101388.28;4991910;28;20142;-61
2021/09/30 06:40:09;;;;;;;12.75;3.40;;;;;;;10.18;62.17;101393.44;5005840;28;20572;-61
2021/09/30 06:42:36;;;;;;;6.60;3.28;;;;;;;10.23;61.95;101389.06;5038379;28;20064;-60
2021/09/30 06:45:28;;;;;;;6.00;2.25;;;;;;;10.30;61.26;101389.91;5037824;28;20071;-62
2021/09/30 06:48:23;;;;;;;2.63;1.50;;;;;;;10.34;60.55;101389.00;5049977;28;20132;-60
2021/09/30 06:50:55;;;;;;;5.78;2.35;;;;;;;10.31;59.75;101384.69;5014611;28;20053;-61
2021/09/30 06:53:29;;;;;;;6.53;1.90;;;;;;;10.25;58.97;101382.16;5014649;28;20045;-52
2021/09/30 06:56:02;;;;;;;4.72;1.88;;;;;;;10.20;59.13;101392.53;5031587;28;20056;-55
2021/09/30 06:58:47;;;;;;;3.25;1.50;;;;;;;10.08;59.25;101378.72;5032241;28;20099;-55
2021/09/30 07:01:48;;;;;;;8.45;2.63;;;;;;;9.97;59.57;101362.31;4991477;28;20149;-60
2021/09/30 07:04:39;;;;;;;4.65;1.80;;;;;;;10.00;59.73;101388.28;5011791;28;20428;-57
2021/09/30 07:07:43;;;;;;;11.65;2.00;;;;;;;9.93;59.93;101384.00;5017436;28;20041;-54
2021/09/30 07:10:10;;;;;;;2.97;1.35;;;;;;;9.87;60.19;101391.81;5027222;28;20140;-57
2021/09/30 07:12:41;;;;;;;2.22;1.77;;;;;;;9.78;59.71;101392.72;5038825;28;20473;-64
2021/09/30 07:15:07;;;;;;;4.57;2.50;;;;;;;9.67;60.15;101381.50;5023143;28;20041;-61
2021/09/30 07:17:33;;;;;;;7.78;2.67;;;;;;;9.67;60.59;101389.31;5031118;28;20041;-60
2021/09/30 07:19:59;;;;;;;8.57;3.67;;;;;;;9.66;61.01;101384.97;5030429;28;20111;-64
2021/09/30 07:22:26;;;;;;;7.47;3.15;;;;;;;9.61;60.97;101382.41;5027905;28;20128;-59
2021/09/30 07:24:52;;;;;;;5.40;2.63;;;;;;;9.58;61.34;101387.59;5028706;28;20041;-60
2021/09/30 07:27:18;;;;;;;5.57;3.13;;;;;;;9.42;62.07;101359.94;5034941;28;20098;-51
2021/09/30 07:29:44;;;;;;;8.77;3.00;;;;;;;9.59;62.09;101386.72;5033207;28;20501;-55
2021/09/30 07:32:09;;;;;;;9.35;3.15;;;;;;;9.62;61.90;101383.25;5029248;28;20544;-55
2021/09/30 07:34:35;;;;;;;8.88;4.13;;;;;;;9.69;61.38;101393.59;5030255;28;20043;-57
2021/09/30 07:37:02;;;;;;;14.25;6.85;;;;;;;9.73;61.24;101389.28;5029588;28;20045;-60
2021/09/30 07:39:30;;;;;;;10.52;3.65;;;;;;;9.78;61.64;101384.94;5013443;28;20033;-56
2021/09/30 07:41:57;;;;;;;8.38;4.53;;;;;;;9.86;60.89;101390.97;5013383;28;20044;-58
2021/09/30 07:44:25;;;;;;;7.35;3.22;;;;;;;9.92;61.14;101390.06;5012579;28;20069;-60
2021/09/30 07:47:04;;;;;;;9.98;3.10;;;;;;;9.95;61.01;101387.44;5030954;28;20057;-63
2021/09/30 07:49:30;;;;;;;13.48;3.67;;;;;;;9.98;61.33;101379.66;5029971;28;20061;-58
2021/09/30 07:51:56;;;;;;;9.93;3.30;;;;;;;10.05;61.01;101378.72;5031181;28;20045;-58
2021/09/30 07:54:22;;;;;;;6.78;2.75;;;;;;;10.10;60.66;101383.03;5026615;28;20499;-56
2021/09/30 07:56:48;;;;;;;7.63;3.20;;;;;;;10.12;60.78;101380.44;5036946;28;20041;-58
2021/09/30 07:59:13;;;;;;;5.95;2.63;;;;;;;10.12;60.39;101383.03;5047089;28;20076;-57
2021/09/30 08:01:39;;;;;;;6.95;2.95;;;;;;;10.12;60.20;101383.03;5030157;28;20111;-52
2021/09/30 08:04:05;;;;;;;9.25;3.22;;;;;;;10.07;60.00;101377.00;5045870;28;20071;-61
2021/09/30 08:06:31;;;;;;;7.13;2.78;;;;;;;10.09;59.97;101388.25;5029911;28;20049;-58
2021/09/30 08:08:58;;;;;;;10.25;2.92;;;;;;;10.06;60.81;101390.84;5029874;28;20136;-57
2021/09/30 08:11:27;;;;;;;7.82;2.78;;;;;;;10.06;60.14;101388.25;5029391;28;20045;-60
2021/09/30 08:13:53;;;;;;;7.32;3.28;;;;;;;9.95;61.00;101372.72;5016018;28;20463;-55
2021/09/30 08:16:19;;;;;;;18.55;7.93;;;;;;;10.05;60.41;101383.94;5025052;28;20050;-58
2021/09/30 08:18:46;;;;;;;5.80;3.50;;;;;;;10.04;60.70;101380.50;5022769;28;20034;-53
2021/09/30 08:21:14;;;;;;;6.40;3.70;;;;;;;10.06;60.58;101389.13;5011232;28;20037;-57
2021/09/30 08:23:43;;;;;;;6.20;2.88;;;;;;;10.06;60.76;101389.13;5023404;28;20037;-52
2021/09/30 08:26:10;;;;;;;13.23;3.45;;;;;;;10.08;60.57;101390.00;5029299;28;20045;-53
2021/09/30 08:28:36;;;;;;;9.05;3.63;;;;;;;10.10;60.87;101379.59;5027156;28;20060;-53
2021/09/30 08:31:06;;;;;;;7.07;3.00;;;;;;;10.08;60.58;101382.19;5029220;28;20045;-60
2021/09/30 08:33:32;;;;;;;;;;;;;;;10.12;59.88;101385.63;5027450;28;20570;-58
2021/09/30 08:35:59;;;;;;;4.30;2.67;;;;;;;10.14;60.43;101386.50;5018661;28;19924;-56
2021/09/30 08:38:28;;;;;;;7.07;3.35;;;;;;;10.15;59.88;101385.63;5010325;28;20066;-59
2021/09/30 08:40:53;;;;;;;5.60;2.75;;;;;;;10.18;59.95;101383.91;5010786;28;20131;-55
2021/09/30 08:43:19;;;;;;;4.47;2.65;;;;;;;10.20;59.65;101384.75;5031206;28;20127;-54
2021/09/30 08:45:45;;;;;;;9.05;3.50;;;;;;;10.13;60.11;101369.19;5024272;28;20513;-53
2021/09/30 08:48:10;;;;;;;6.55;3.30;;;;;;;10.25;60.44;101386.47;5030261;28;20103;-51
2021/09/30 08:50:40;;;;;;;5.75;2.78;;;;;;;10.26;60.63;101370.84;5029871;28;20144;-52
2021/09/30 08:53:10;;;;;;;5.78;3.15;;;;;;;10.26;60.60;101373.44;5027852;28;20051;-54
2021/09/30 08:55:38;;;;;;;7.63;3.00;;;;;;;10.26;60.16;101372.63;5011279;28;20576;-59
2021/09/30 08:58:06;;;;;;;5.38;3.05;;;;;;;10.27;60.33;101376.91;5027498;28;20037;-59
2021/09/30 09:00:33;;;;;;;11.63;5.25;;;;;;;10.26;59.75;101375.22;5013669;28;20056;-56
2021/09/30 09:02:59;;;;;;;5.38;3.10;;;;;;;10.27;60.49;101375.19;5033189;28;20045;-58
2021/09/30 09:05:25;;;;;;;10.57;3.50;;;;;;;10.28;60.68;101382.13;5028178;28;20051;-58
2021/09/30 09:07:59;;;;;;;12.02;4.55;;;;;;;10.30;60.53;101377.78;5029343;28;20523;-57
2021/09/30 09:10:28;;;;;;;11.30;4.20;;;;;;;10.30;60.35;101382.13;5028046;28;20045;-58
2021/09/30 09:13:14;;;;;;;8.77;4.10;;;;;;;10.27;60.26;101379.50;5024200;28;20041;-54
2021/09/30 09:15:51;;;;;;;17.73;9.63;;;;;;;10.20;60.87;101387.34;5028351;28;20424;-55
2021/09/30 09:18:22;;;;;;;12.25;7.18;;;;;;;10.18;60.60;101388.25;5028926;28;20043;-58
2021/09/30 09:20:59;;;;;;;7.82;4.43;;;;;;;10.16;61.15;101387.38;5028572;28;20124;-52
2021/09/30 09:23:25;;;;;;;7.35;4.18;;;;;;;10.18;61.25;101386.50;5025541;28;20072;-60
2021/09/30 09:26:09;;;;;;;7.15;3.90;;;;;;;10.16;61.36;101389.97;5002846;28;20458;-53
2021/09/30 09:28:37;;;;;;;9.63;4.47;;;;;;;10.15;61.04;101383.88;5018693;28;20099;-54
2021/09/30 09:31:03;;;;;;;6.40;3.83;;;;;;;10.09;61.00;101375.28;5028910;28;20069;-55
2021/09/30 09:33:31;;;;;;;8.10;4.35;;;;;;;10.17;61.94;101384.78;5031711;28;20555;-55
2021/09/30 09:38:51;;;;;;;11.95;4.70;;;;;;;10.04;61.97;101369.22;5013556;28;20041;-53
2021/09/30 09:41:29;;;;;;;8.07;4.43;;;;;;;10.03;61.31;101362.31;5012712;28;20041;-56
2021/09/30 09:43:57;;;;;;;7.97;4.10;;;;;;;10.16;61.56;101392.56;5013260;28;20052;-54
2021/09/30 09:46:28;;;;;;;7.55;4.13;;;;;;;10.16;61.71;101384.78;5028010;28;20049;-52
2021/09/30 09:49:06;;;;;;;8.63;4.03;;;;;;;10.19;60.86;101388.25;5031558;28;20136;-55
2021/09/30 09:51:49;;;;;;;7.43;4.60;;;;;;;10.14;61.50;101376.97;5029533;28;20041;-54
2021/09/30 09:54:29;;;;;;;9.55;3.97;;;;;;;10.22;61.34;101386.47;5032155;28;20419;-54
2021/09/30 09:57:09;;;;;;;10.50;4.35;;;;;;;10.21;61.69;101385.59;5032197;28;20417;-58
2021/09/30 09:59:40;;;;;;;5.68;3.72;;;;;;;10.14;61.37;101369.19;5047074;28;20416;-53
2021/09/30 10:02:06;;;;;;;7.00;4.05;;;;;;;10.20;61.80;101383.91;5032434;28;20428;-55
2021/09/30 10:04:32;;;;;;;8.63;4.57;;;;;;;10.18;61.55;101386.50;5032052;28;20041;-54
2021/09/30 10:06:58;;;;;;;11.65;4.80;;;;;;;10.19;61.44;101379.56;5046747;28;20040;-55
2021/09/30 10:09:24;;;;;;;8.35;4.82;;;;;;;10.12;61.90;101373.50;5031109;28;20033;-53
2021/09/30 10:11:50;;;;;;;8.45;4.63;;;;;;;10.08;62.61;101365.75;5030541;28;20049;-53
2021/09/30 10:14:18;;;;;;;9.65;5.20;;;;;;;10.24;62.49;101392.53;4994990;28;20044;-53
2021/09/30 10:16:48;;;;;;;9.65;4.75;;;;;;;10.18;62.54;101385.63;4997944;28;20498;-55
2021/09/30 10:19:13;;;;;;;7.68;4.07;;;;;;;10.18;62.56;101380.44;5012124;28;20034;-55
2021/09/30 10:21:39;;;;;;;7.43;4.25;;;;;;;10.23;62.39;101389.06;5012108;28;20586;-54
2021/09/30 10:24:16;;;;;;;7.15;4.28;;;;;;;10.23;61.81;101389.06;5016883;28;20049;-54
2021/09/30 10:26:58;;;;;;;6.22;4.13;;;;;;;10.15;62.39;101370.03;5030448;28;20531;-55
2021/09/30 10:29:37;;;;;;;8.52;4.50;;;;;;;10.25;62.03;101392.53;5032064;28;20512;-55
2021/09/30 10:32:05;;;;;;;6.82;4.07;;;;;;;10.26;62.10;101381.25;5031876;28;20061;-56
2021/09/30 10:34:33;;;;;;;7.45;4.60;;;;;;;10.31;62.29;101387.28;5031158;28;20033;-52
2021/09/30 10:37:19;;;;;;;9.88;5.13;;;;;;;10.34;61.96;101395.09;5030174;28;20501;-55
2021/09/30 10:40:04;;;;;;;7.15;4.65;;;;;;;10.34;61.36;101397.69;5031753;28;20037;-54
2021/09/30 10:42:58;;;;;;;8.77;4.82;;;;;;;10.36;61.25;101390.75;5030106;28;20045;-55
2021/09/30 10:45:38;;;;;;;10.35;4.82;;;;;;;10.39;61.14;101395.03;5028564;28;20049;-54
2021/09/30 10:48:27;;;;;;;8.45;4.60;;;;;;;10.38;61.55;101399.38;5027725;28;20059;-56
2021/09/30 10:50:57;;;;;;;8.43;5.30;;;;;;;10.39;61.75;101401.13;5013058;28;20050;-54
2021/09/30 10:53:47;;;;;;;11.63;7.18;;;;;;;10.37;62.09;101389.84;5028208;28;20040;-56
2021/09/30 10:56:29;;;;;;;28.63;14.73;;;;;;;10.35;62.68;101396.81;5029263;28;20034;-57
2021/09/30 10:59:27;;;;;;;8.50;5.13;;;;;;;10.32;62.80;101393.34;5031779;28;20049;-55
2021/09/30 11:01:54;;;;;;;7.97;4.60;;;;;;;10.31;63.00;101396.84;5009265;28;20065;-54
2021/09/30 11:04:21;;;;;;;12.13;4.88;;;;;;;10.28;64.39;101391.66;5013288;28;20124;-53
2021/09/30 11:07:05;;;;;;;9.07;4.45;;;;;;;10.29;64.11;101395.97;5020997;28;20045;-52
2021/09/30 11:09:31;;;;;;;10.63;5.10;;;;;;;10.28;64.07;101402.03;5033460;28;20038;-51
2021/09/30 11:12:15;;;;;;;8.00;4.25;;;;;;;10.17;64.72;101381.31;5036196;28;20119;-49
2021/09/30 11:14:54;;;;;;;11.05;4.75;;;;;;;10.26;64.45;101396.00;5020108;28;20048;-52
2021/09/30 11:17:37;;;;;;;11.65;5.85;;;;;;;10.22;65.13;101395.13;5025434;28;20504;-56
2021/09/30 11:20:31;;;;;;;13.63;5.60;;;;;;;10.18;64.92;101401.25;5027465;28;20037;-54
2021/09/30 11:22:58;;;;;;;11.95;5.90;;;;;;;10.15;64.56;101401.22;5011812;28;20042;-51
2021/09/30 11:26:02;;;;;;;9.35;4.57;;;;;;;10.14;64.60;101392.56;5023233;28;20037;-58
2021/09/30 11:28:28;;;;;;;15.13;6.20;;;;;;;10.13;64.97;101393.44;4993606;28;20096;-57
2021/09/30 11:31:25;;;;;;;15.27;6.30;;;;;;;10.13;64.83;101393.44;5011135;28;20041;-56
2021/09/30 11:33:52;;;;;;;11.13;4.97;;;;;;;10.00;64.68;101370.09;5013057;28;20137;-53
2021/09/30 11:36:18;;;;;;;8.15;5.07;;;;;;;10.13;64.91;101390.84;5029275;28;20037;-56
2021/09/30 11:38:45;;;;;;;9.70;4.70;;;;;;;10.14;64.14;101399.50;5029387;28;20103;-57
2021/09/30 11:41:11;;;;;;;11.00;5.03;;;;;;;10.12;64.90;101396.03;5028734;28;20045;-55
2021/09/30 11:43:36;;;;;;;12.63;5.38;;;;;;;10.12;64.50;101396.03;5028394;28;20049;-52
2021/09/30 11:46:32;;;;;;;14.57;6.50;;;;;;;10.15;65.13;101393.44;5014948;28;20061;-49
2021/09/30 11:49:00;;;;;;;13.20;6.03;;;;;;;10.15;65.05;101390.84;5011252;28;20048;-54
2021/09/30 11:51:34;;;;;;;11.10;5.95;;;;;;;10.15;65.87;101388.22;5030914;28;20147;-55
2021/09/30 11:54:01;;;;;;;14.02;5.82;;;;;;;10.15;65.44;101386.47;5030449;28;20187;-57
2021/09/30 11:56:27;;;;;;;15.50;6.25;;;;;;;10.08;65.47;101368.34;5030984;28;20037;-57
2021/09/30 11:59:02;;;;;;;15.13;6.55;;;;;;;10.12;65.44;101380.44;5016757;28;20463;-60
2021/09/30 12:01:36;;;;;;;9.00;5.40;;;;;;;10.01;65.51;101374.44;5034242;28;20113;-58
2021/09/30 12:04:03;;;;;;;11.57;5.75;;;;;;;10.05;65.19;101377.00;5029072;28;20091;-60
2021/09/30 12:06:38;;;;;;;8.27;5.75;;;;;;;10.07;65.59;101383.06;5029726;28;20053;-58
2021/09/30 12:09:04;;;;;;;13.55;6.78;;;;;;;10.08;65.13;101379.59;5027766;28;20045;-61
2021/09/30 12:11:31;;;;;;;21.20;11.57;;;;;;;10.07;65.45;101379.59;5029541;28;20496;-59
2021/09/30 12:13:58;;;;;;;15.10;7.28;;;;;;;10.06;65.79;101378.72;5010607;28;20044;-54
2021/09/30 12:16:24;;;;;;;13.40;6.70;;;;;;;10.04;65.03;101375.28;5029597;28;20072;-58
2021/09/30 12:19:03;;;;;;;12.57;6.35;;;;;;;10.02;64.26;101379.63;5030224;28;20084;-55
2021/09/30 12:21:40;;;;;;;12.68;6.10;;;;;;;9.88;63.92;101377.97;5028840;28;20449;-55
2021/09/30 12:24:09;;;;;;;18.65;8.23;;;;;;;9.87;64.41;101373.63;5028012;28;20144;-52
2021/09/30 12:26:35;;;;;;;14.75;8.35;;;;;;;9.93;64.21;101376.22;5029026;28;20652;-58
2021/09/30 12:29:02;;;;;;;14.52;7.60;;;;;;;9.96;64.38;101374.44;5027075;28;20041;-59
2021/09/30 12:31:29;;;;;;;11.50;6.90;;;;;;;10.00;64.81;101370.09;5029567;28;20038;-57
2021/09/30 12:33:56;;;;;;;10.60;6.85;;;;;;;10.03;64.53;101370.09;5029529;28;20041;-56
2021/09/30 12:36:21;;;;;;;16.10;9.88;;;;;;;9.97;65.16;101351.94;5028653;28;20037;-54
2021/09/30 12:39:01;;;;;;;10.15;6.25;;;;;;;10.05;64.82;101373.53;5027411;28;20056;-56
2021/09/30 12:41:28;;;;;;;12.70;6.65;;;;;;;10.00;64.88;101367.50;5018410;28;20115;-55
2021/09/30 12:43:54;;;;;;;11.02;6.32;;;;;;;9.91;64.83;101355.44;5024255;28;20075;-52
2021/09/30 12:46:20;;;;;;;12.23;6.22;;;;;;;10.04;64.99;101369.22;5028208;28;20046;-55
2021/09/30 12:48:49;;;;;;;15.10;8.00;;;;;;;10.05;65.19;101365.72;5028190;28;20051;-54
2021/09/30 12:51:17;;;;;;;15.00;6.93;;;;;;;10.05;64.14;101366.59;5028191;28;20044;-54
2021/09/30 12:53:53;;;;;;;17.98;7.72;;;;;;;10.06;63.70;101368.34;5010012;28;20060;-51
2021/09/30 12:56:28;;;;;;;10.85;6.50;;;;;;;10.03;63.59;101362.31;5009828;28;20136;-53
2021/09/30 12:58:54;;;;;;;12.70;6.10;;;;;;;10.01;63.67;101359.69;5022428;28;20124;-59
2021/09/30 13:01:36;;;;;;;15.57;9.35;;;;;;;9.98;63.51;101361.47;5028035;28;20521;-50
2021/09/30 13:04:22;;;;;;;17.58;8.10;;;;;;;9.99;64.15;101356.28;5028811;28;20041;-53
2021/09/30 13:06:56;;;;;;;15.57;8.07;;;;;;;10.01;64.12;101357.09;5028335;28;20409;-56
2021/09/30 13:09:28;;;;;;;10.73;6.25;;;;;;;10.02;64.01;101363.16;5028582;28;20076;-50
2021/09/30 13:12:02;;;;;;;14.35;6.65;;;;;;;10.01;64.56;101359.69;5026660;28;20060;-52
2021/09/30 13:14:34;;;;;;;17.55;6.70;;;;;;;10.04;63.84;101358.84;5022193;28;20422;-55
2021/09/30 13:17:06;;;;;;;9.77;6.38;;;;;;;9.97;63.65;101362.31;5026998;28;20483;-54
2021/09/30 13:19:54;;;;;;;11.02;6.47;;;;;;;9.92;63.47;101359.75;5029006;28;20521;-57
2021/09/30 13:22:23;;;;;;;13.25;7.28;;;;;;;9.91;63.44;101352.81;5028046;28;20389;-55
2021/09/30 13:24:52;;;;;;;13.65;8.57;;;;;;;9.95;63.56;101356.25;5028945;28;20136;-58
2021/09/30 13:27:23;;;;;;;14.05;7.28;;;;;;;9.83;63.80;101331.22;5027847;28;20102;-58
2021/09/30 13:29:49;;;;;;;16.23;9.02;;;;;;;9.97;64.18;101355.41;5029604;28;20073;-58
2021/09/30 13:32:16;;;;;;;11.43;6.47;;;;;;;9.99;64.49;101355.41;5028530;28;20378;-55
2021/09/30 13:34:42;;;;;;;12.73;6.90;;;;;;;9.99;64.54;101345.00;5029517;28;20049;-57
2021/09/30 13:37:08;;;;;;;10.63;6.57;;;;;;;9.99;64.45;101340.69;5028900;28;20075;-58
2021/09/30 13:39:34;;;;;;;12.60;6.97;;;;;;;9.92;64.58;101330.31;5016998;28;20576;-59
2021/09/30 13:41:59;;;;;;;11.43;6.03;;;;;;;10.00;64.71;101344.09;5030609;28;20156;-59
2021/09/30 13:44:25;;;;;;;15.68;6.80;;;;;;;9.99;64.48;101345.00;5049381;28;20049;-58
2021/09/30 13:46:51;;;;;;;13.13;6.53;;;;;;;10.01;64.94;101340.66;5029342;28;20056;-54
2021/09/30 13:49:17;;;;;;;12.48;6.40;;;;;;;10.02;64.15;101331.97;5028490;28;20056;-58
2021/09/30 13:51:43;;;;;;;15.55;7.63;;;;;;;10.02;64.90;101334.59;5028253;28;20044;-56
2021/09/30 13:54:08;;;;;;;14.13;6.68;;;;;;;10.01;64.68;101328.53;5016548;28;20038;-55
2021/09/30 13:56:34;;;;;;;15.38;6.68;;;;;;;10.01;64.64;101327.66;5007970;28;20528;-56
2021/09/30 13:59:00;;;;;;;15.48;7.15;;;;;;;9.92;64.68;101319.91;5026600;28;20136;-52
2021/09/30 14:01:26;;;;;;;17.60;7.57;;;;;;;9.99;64.60;101332.03;5028752;28;20461;-56
2021/09/30 14:03:53;;;;;;;16.77;7.47;;;;;;;9.96;64.72;101325.09;5029113;28;20135;-57
2021/09/30 14:06:19;;;;;;;14.57;6.72;;;;;;;9.95;64.97;101332.88;5029061;28;20045;-57
2021/09/30 14:08:49;;;;;;;15.23;6.43;;;;;;;9.79;65.08;101301.78;5027057;28;20107;-54
2021/09/30 14:11:16;;;;;;;13.63;6.15;;;;;;;9.93;64.87;101324.25;5028869;28;20037;-56
2021/09/30 14:13:42;;;;;;;15.27;7.65;;;;;;;9.93;65.26;101326.84;5018966;28;20123;-57
2021/09/30 14:16:08;;;;;;;15.02;7.45;;;;;;;9.91;65.48;101324.25;5027667;28;20056;-57
2021/09/30 14:18:34;;;;;;;13.55;7.28;;;;;;;9.84;64.97;101316.50;5030532;28;20044;-56
2021/09/30 14:21:00;;;;;;;11.52;7.03;;;;;;;9.91;65.15;101318.19;5015469;28;20045;-57
2021/09/30 14:23:26;;;;;;;13.43;6.47;;;;;;;9.91;65.38;101320.78;5022850;28;20132;-56
2021/09/30 14:25:52;;;;;;;10.55;6.07;;;;;;;9.90;65.29;101319.06;5043556;28;20521;-56
2021/09/30 14:28:19;;;;;;;20.35;7.28;;;;;;;9.88;65.49;101320.81;5033524;28;20050;-57
2021/09/30 14:30:44;;;;;;;12.65;6.72;;;;;;;9.86;64.53;101320.81;5042500;28;20029;-56
2021/09/30 14:33:10;;;;;;;15.60;7.22;;;;;;;9.84;64.68;101317.34;5030606;28;20434;-55
2021/09/30 14:35:36;;;;;;;16.35;7.07;;;;;;;9.75;64.77;101296.63;5032937;28;20052;-56
2021/09/30 14:38:03;;;;;;;11.93;6.65;;;;;;;9.75;64.58;101310.47;5040942;28;20052;-55